CheckWX is a tool to help pilots better visualize weather data.  It is not intended as a substitute for an official pre-flight weather briefing.

11:18:40 UTC

UIII METAR
Irkutsk Airport
Irkutsk, Russian Federation
Current

19 mins ago

UIII 181100Z 20004MPS CAVOK 09/M04 Q0997 R12/CLRD60 NOSIG RMK QFE706/0941
Observed
Apr-18 @ 11:00 UTC
Wind
  • 200° at 8 KTS
Visibility
10,000+ meters
Flight Rules
VFR
Cloud Levels
  • Clear skies
Temperature
C / 48°F
Dewpoint
-4°C / 25°F
Humidity
40%
Altimeter
29.44" Hg
Pressure
996.92 hPa
Previous

49 mins ago

UIII 181030Z 18006MPS CAVOK 11/M05 Q0998 R12/60D NOSIG RMK QFE706/0942
Observed
Apr-18 @ 10:30 UTC
Wind
  • 180° at 12 KTS
Visibility
10,000+ meters
Flight Rules
VFR
Cloud Levels
  • Clear skies
Temperature
11°C / 52°F
Dewpoint
-5°C / 23°F
Humidity
32%
Altimeter
29.47" Hg
Pressure
997.92 hPa
Previous

1 hour ago

UIII 181000Z 17006MPS CAVOK 12/M05 Q0998 R12/CLRD60 NOSIG RMK QFE707/0943
Observed
Apr-18 @ 10:00 UTC
Wind
  • 170° at 12 KTS
Visibility
10,000+ meters
Flight Rules
VFR
Cloud Levels
  • Clear skies
Temperature
12°C / 54°F
Dewpoint
-5°C / 23°F
Humidity
30%
Altimeter
29.47" Hg
Pressure
997.92 hPa